sensor_id;sensor_type;location;lat;lon;timestamp;temperature;humidity
262;DHT22;114;48.260;10.988;2023-01-25T00:02:17;1.00;99.90
262;DHT22;114;48.260;10.988;2023-01-25T00:04:42;1.10;99.90
262;DHT22;114;48.260;10.988;2023-01-25T00:07:08;1.10;99.90
262;DHT22;114;48.260;10.988;2023-01-25T00:09:34;1.10;99.90
262;DHT22;114;48.260;10.988;2023-01-25T00:12:00;1.20;99.90
262;DHT22;114;48.260;10.988;2023-01-25T00:14:25;1.10;99.90
262;DHT22;114;48.260;10.988;2023-01-25T00:16:51;1.10;99.90
262;DHT22;114;48.260;10.988;2023-01-25T00:19:17;1.10;99.90
262;DHT22;114;48.260;10.988;2023-01-25T00:21:43;1.10;99.90
262;DHT22;114;48.260;10.988;2023-01-25T00:24:09;1.10;99.90
262;DHT22;114;48.260;10.988;2023-01-25T00:26:36;1.20;99.90
262;DHT22;114;48.260;10.988;2023-01-25T00:29:03;1.10;99.90
262;DHT22;114;48.260;10.988;2023-01-25T00:34:51;1.10;99.90
262;DHT22;114;48.260;10.988;2023-01-25T00:39:37;1.10;99.90
262;DHT22;114;48.260;10.988;2023-01-25T00:42:04;1.00;99.90
262;DHT22;114;48.260;10.988;2023-01-25T00:44:30;1.00;99.90
262;DHT22;114;48.260;10.988;2023-01-25T00:46:55;1.00;99.90
262;DHT22;114;48.260;10.988;2023-01-25T00:49:24;1.00;99.90
262;DHT22;114;48.260;10.988;2023-01-25T00:51:50;1.00;99.90
262;DHT22;114;48.260;10.988;2023-01-25T00:54:17;1.00;99.90
262;DHT22;114;48.260;10.988;2023-01-25T00:56:43;1.00;99.90
262;DHT22;114;48.260;10.988;2023-01-25T00:59:12;1.00;99.90
262;DHT22;114;48.260;10.988;2023-01-25T01:01:40;1.00;99.90
262;DHT22;114;48.260;10.988;2023-01-25T01:04:06;1.00;99.90
262;DHT22;114;48.260;10.988;2023-01-25T01:06:34;1.00;99.90
262;DHT22;114;48.260;10.988;2023-01-25T01:09:00;1.00;99.90
262;DHT22;114;48.260;10.988;2023-01-25T01:11:26;1.00;99.90
262;DHT22;114;48.260;10.988;2023-01-25T01:13:52;1.00;99.90
262;DHT22;114;48.260;10.988;2023-01-25T01:16:18;1.00;99.90
262;DHT22;114;48.260;10.988;2023-01-25T01:18:44;1.00;99.90
262;DHT22;114;48.260;10.988;2023-01-25T01:21:12;1.10;99.90
262;DHT22;114;48.260;10.988;2023-01-25T01:23:38;1.10;99.90
262;DHT22;114;48.260;10.988;2023-01-25T01:26:06;1.10;99.90
262;DHT22;114;48.260;10.988;2023-01-25T01:28:33;1.10;99.90
262;DHT22;114;48.260;10.988;2023-01-25T01:31:00;1.10;99.90
262;DHT22;114;48.260;10.988;2023-01-25T01:33:26;1.10;99.90
262;DHT22;114;48.260;10.988;2023-01-25T01:35:52;1.10;99.90
262;DHT22;114;48.260;10.988;2023-01-25T01:38:18;1.00;99.90
262;DHT22;114;48.260;10.988;2023-01-25T01:40:45;1.00;99.90
262;DHT22;114;48.260;10.988;2023-01-25T01:43:22;1.00;99.90
262;DHT22;114;48.260;10.988;2023-01-25T01:54:33;0.90;99.90
262;DHT22;114;48.260;10.988;2023-01-25T01:57:08;0.90;99.90
262;DHT22;114;48.260;10.988;2023-01-25T02:02:09;0.80;99.90
262;DHT22;114;48.260;10.988;2023-01-25T02:04:35;0.80;99.90
262;DHT22;114;48.260;10.988;2023-01-25T02:07:14;0.80;99.90
262;DHT22;114;48.260;10.988;2023-01-25T02:09:41;0.90;99.90
262;DHT22;114;48.260;10.988;2023-01-25T02:12:08;0.80;99.90
262;DHT22;114;48.260;10.988;2023-01-25T02:14:36;0.70;99.90
262;DHT22;114;48.260;10.988;2023-01-25T02:17:04;0.70;99.90
262;DHT22;114;48.260;10.988;2023-01-25T02:19:36;0.70;99.90
262;DHT22;114;48.260;10.988;2023-01-25T02:22:07;0.70;99.90
262;DHT22;114;48.260;10.988;2023-01-25T02:24:35;0.70;99.90
262;DHT22;114;48.260;10.988;2023-01-25T02:27:04;0.70;99.90
262;DHT22;114;48.260;10.988;2023-01-25T02:29:30;0.70;99.90
262;DHT22;114;48.260;10.988;2023-01-25T02:32:02;0.70;99.90
262;DHT22;114;48.260;10.988;2023-01-25T02:34:28;0.70;99.90
262;DHT22;114;48.260;10.988;2023-01-25T02:36:54;0.70;99.90
262;DHT22;114;48.260;10.988;2023-01-25T02:39:19;0.70;99.90
262;DHT22;114;48.260;10.988;2023-01-25T02:41:48;0.70;99.90
262;DHT22;114;48.260;10.988;2023-01-25T02:44:17;0.60;99.90
262;DHT22;114;48.260;10.988;2023-01-25T02:46:45;0.60;99.90
262;DHT22;114;48.260;10.988;2023-01-25T02:49:12;0.60;99.90
262;DHT22;114;48.260;10.988;2023-01-25T02:51:42;0.70;99.90
262;DHT22;114;48.260;10.988;2023-01-25T02:54:10;0.70;99.90
262;DHT22;114;48.260;10.988;2023-01-25T02:56:37;0.70;99.90
262;DHT22;114;48.260;10.988;2023-01-25T02:59:05;0.70;99.90
262;DHT22;114;48.260;10.988;2023-01-25T03:01:35;0.60;99.90
262;DHT22;114;48.260;10.988;2023-01-25T03:04:02;0.60;99.90
262;DHT22;114;48.260;10.988;2023-01-25T03:06:28;0.70;99.90
262;DHT22;114;48.260;10.988;2023-01-25T03:08:54;0.60;99.90
262;DHT22;114;48.260;10.988;2023-01-25T03:11:19;0.70;99.90
262;DHT22;114;48.260;10.988;2023-01-25T03:13:45;0.70;99.90
262;DHT22;114;48.260;10.988;2023-01-25T03:16:11;0.80;99.90
262;DHT22;114;48.260;10.988;2023-01-25T03:18:38;0.70;99.90
262;DHT22;114;48.260;10.988;2023-01-25T03:21:13;0.70;99.90
262;DHT22;114;48.260;10.988;2023-01-25T03:23:40;0.60;99.90
262;DHT22;114;48.260;10.988;2023-01-25T03:26:14;0.70;99.90
262;DHT22;114;48.260;10.988;2023-01-25T03:28:40;0.70;99.90
262;DHT22;114;48.260;10.988;2023-01-25T03:31:08;0.70;99.90
262;DHT22;114;48.260;10.988;2023-01-25T03:33:34;0.70;99.90
262;DHT22;114;48.260;10.988;2023-01-25T03:36:01;0.70;99.90
262;DHT22;114;48.260;10.988;2023-01-25T03:38:27;0.70;99.90
262;DHT22;114;48.260;10.988;2023-01-25T03:40:53;0.70;99.90
262;DHT22;114;48.260;10.988;2023-01-25T03:43:19;0.60;99.90
262;DHT22;114;48.260;10.988;2023-01-25T03:45:45;0.60;99.90
262;DHT22;114;48.260;10.988;2023-01-25T03:48:12;0.60;99.90
262;DHT22;114;48.260;10.988;2023-01-25T03:50:37;0.70;99.90
262;DHT22;114;48.260;10.988;2023-01-25T03:53:09;0.50;99.90
262;DHT22;114;48.260;10.988;2023-01-25T03:55:44;0.50;99.90
262;DHT22;114;48.260;10.988;2023-01-25T03:58:10;0.60;99.90
262;DHT22;114;48.260;10.988;2023-01-25T04:00:36;0.60;99.90
262;DHT22;114;48.260;10.988;2023-01-25T04:03:01;0.60;99.90
262;DHT22;114;48.260;10.988;2023-01-25T04:05:27;0.50;99.90
262;DHT22;114;48.260;10.988;2023-01-25T04:07:53;0.60;99.90
262;DHT22;114;48.260;10.988;2023-01-25T04:10:19;0.60;99.90
262;DHT22;114;48.260;10.988;2023-01-25T04:12:44;0.60;99.90
262;DHT22;114;48.260;10.988;2023-01-25T04:15:10;0.60;99.90
262;DHT22;114;48.260;10.988;2023-01-25T04:17:36;0.60;99.90
262;DHT22;114;48.260;10.988;2023-01-25T04:20:01;0.60;99.90
262;DHT22;114;48.260;10.988;2023-01-25T04:22:27;0.60;99.90
262;DHT22;114;48.260;10.988;2023-01-25T04:24:53;0.50;99.90
262;DHT22;114;48.260;10.988;2023-01-25T04:27:19;0.60;99.90
262;DHT22;114;48.260;10.988;2023-01-25T04:29:44;0.50;99.90
262;DHT22;114;48.260;10.988;2023-01-25T04:32:10;0.60;99.90
262;DHT22;114;48.260;10.988;2023-01-25T04:34:36;0.50;99.90
262;DHT22;114;48.260;10.988;2023-01-25T04:37:01;0.50;99.90
262;DHT22;114;48.260;10.988;2023-01-25T04:39:27;0.50;99.90
262;DHT22;114;48.260;10.988;2023-01-25T04:41:53;0.50;99.90
262;DHT22;114;48.260;10.988;2023-01-25T04:44:18;0.50;99.90
262;DHT22;114;48.260;10.988;2023-01-25T04:46:44;0.50;99.90
262;DHT22;114;48.260;10.988;2023-01-25T04:49:10;0.50;99.90
262;DHT22;114;48.260;10.988;2023-01-25T04:51:36;0.50;99.90
262;DHT22;114;48.260;10.988;2023-01-25T04:54:02;0.50;99.90
262;DHT22;114;48.260;10.988;2023-01-25T04:56:27;0.50;99.90
262;DHT22;114;48.260;10.988;2023-01-25T04:58:53;0.50;99.90
262;DHT22;114;48.260;10.988;2023-01-25T05:01:19;0.50;99.90
262;DHT22;114;48.260;10.988;2023-01-25T05:03:45;0.50;99.90
262;DHT22;114;48.260;10.988;2023-01-25T05:06:10;0.50;99.90
262;DHT22;114;48.260;10.988;2023-01-25T05:08:36;0.50;99.90
262;DHT22;114;48.260;10.988;2023-01-25T05:11:02;0.60;99.90
262;DHT22;114;48.260;10.988;2023-01-25T05:13:27;0.50;99.90
262;DHT22;114;48.260;10.988;2023-01-25T05:15:55;0.50;99.90
262;DHT22;114;48.260;10.988;2023-01-25T05:18:21;0.50;99.90
262;DHT22;114;48.260;10.988;2023-01-25T05:20:46;0.40;99.90
262;DHT22;114;48.260;10.988;2023-01-25T05:23:12;0.50;99.90
262;DHT22;114;48.260;10.988;2023-01-25T05:25:38;0.50;99.90
262;DHT22;114;48.260;10.988;2023-01-25T05:28:22;0.50;99.90
262;DHT22;114;48.260;10.988;2023-01-25T05:30:48;0.40;99.90
262;DHT22;114;48.260;10.988;2023-01-25T05:33:15;0.40;99.90
262;DHT22;114;48.260;10.988;2023-01-25T05:35:40;0.40;99.90
262;DHT22;114;48.260;10.988;2023-01-25T05:38:07;0.50;99.90
262;DHT22;114;48.260;10.988;2023-01-25T05:40:33;0.40;99.90
262;DHT22;114;48.260;10.988;2023-01-25T05:42:59;0.40;99.90
262;DHT22;114;48.260;10.988;2023-01-25T05:45:25;0.40;99.90
262;DHT22;114;48.260;10.988;2023-01-25T05:47:52;0.50;99.90
262;DHT22;114;48.260;10.988;2023-01-25T05:50:19;0.50;99.90
262;DHT22;114;48.260;10.988;2023-01-25T05:52:45;0.50;99.90
262;DHT22;114;48.260;10.988;2023-01-25T05:55:11;0.60;99.90
262;DHT22;114;48.260;10.988;2023-01-25T05:57:36;0.70;99.90
262;DHT22;114;48.260;10.988;2023-01-25T06:00:04;0.70;99.90
262;DHT22;114;48.260;10.988;2023-01-25T06:02:29;0.70;99.90
262;DHT22;114;48.260;10.988;2023-01-25T06:04:56;0.70;99.90
262;DHT22;114;48.260;10.988;2023-01-25T06:07:22;0.80;99.90
262;DHT22;114;48.260;10.988;2023-01-25T06:09:48;0.60;99.90
262;DHT22;114;48.260;10.988;2023-01-25T06:12:14;0.50;99.90
262;DHT22;114;48.260;10.988;2023-01-25T06:14:41;0.40;99.90
262;DHT22;114;48.260;10.988;2023-01-25T06:17:07;0.50;99.90
262;DHT22;114;48.260;10.988;2023-01-25T06:19:33;0.40;99.90
262;DHT22;114;48.260;10.988;2023-01-25T06:21:58;0.40;99.90
262;DHT22;114;48.260;10.988;2023-01-25T06:24:24;0.40;99.90
262;DHT22;114;48.260;10.988;2023-01-25T06:26:50;0.30;99.90
262;DHT22;114;48.260;10.988;2023-01-25T06:29:16;0.40;99.90
262;DHT22;114;48.260;10.988;2023-01-25T06:31:41;0.40;99.90
262;DHT22;114;48.260;10.988;2023-01-25T06:34:07;0.40;99.90
262;DHT22;114;48.260;10.988;2023-01-25T06:36:34;0.40;99.90
262;DHT22;114;48.260;10.988;2023-01-25T06:39:00;0.40;99.90
262;DHT22;114;48.260;10.988;2023-01-25T06:41:25;0.40;99.90
262;DHT22;114;48.260;10.988;2023-01-25T06:43:52;0.30;99.90
262;DHT22;114;48.260;10.988;2023-01-25T06:46:18;0.30;99.90
262;DHT22;114;48.260;10.988;2023-01-25T06:48:44;0.30;99.90
262;DHT22;114;48.260;10.988;2023-01-25T06:51:13;0.30;99.90
262;DHT22;114;48.260;10.988;2023-01-25T06:53:41;0.30;99.90
262;DHT22;114;48.260;10.988;2023-01-25T06:58:34;0.40;99.90
262;DHT22;114;48.260;10.988;2023-01-25T07:01:05;0.40;99.90
262;DHT22;114;48.260;10.988;2023-01-25T07:03:32;0.40;99.90
262;DHT22;114;48.260;10.988;2023-01-25T07:06:03;0.40;99.90
262;DHT22;114;48.260;10.988;2023-01-25T07:08:30;0.30;99.90
262;DHT22;114;48.260;10.988;2023-01-25T07:10:58;0.40;99.90
262;DHT22;114;48.260;10.988;2023-01-25T07:13:25;0.40;99.90
262;DHT22;114;48.260;10.988;2023-01-25T07:15:57;0.40;99.90
262;DHT22;114;48.260;10.988;2023-01-25T07:18:25;0.40;99.90
262;DHT22;114;48.260;10.988;2023-01-25T07:20:51;0.40;99.90
262;DHT22;114;48.260;10.988;2023-01-25T07:23:17;0.50;99.90
262;DHT22;114;48.260;10.988;2023-01-25T07:25:47;0.40;99.90
262;DHT22;114;48.260;10.988;2023-01-25T07:28:14;0.40;99.90
262;DHT22;114;48.260;10.988;2023-01-25T07:30:41;0.40;99.90
262;DHT22;114;48.260;10.988;2023-01-25T07:33:07;0.40;99.90
262;DHT22;114;48.260;10.988;2023-01-25T07:35:33;0.40;99.90
262;DHT22;114;48.260;10.988;2023-01-25T07:37:59;0.50;99.90
262;DHT22;114;48.260;10.988;2023-01-25T07:40:25;0.50;99.90
262;DHT22;114;48.260;10.988;2023-01-25T07:42:51;0.40;99.90
262;DHT22;114;48.260;10.988;2023-01-25T07:45:17;0.40;99.90
262;DHT22;114;48.260;10.988;2023-01-25T07:47:43;0.40;99.70
262;DHT22;114;48.260;10.988;2023-01-25T07:50:10;0.40;99.90
262;DHT22;114;48.260;10.988;2023-01-25T07:52:36;0.40;99.90
262;DHT22;114;48.260;10.988;2023-01-25T07:55:02;0.50;99.90
262;DHT22;114;48.260;10.988;2023-01-25T07:57:28;0.50;99.90
262;DHT22;114;48.260;10.988;2023-01-25T07:59:54;0.50;99.90
262;DHT22;114;48.260;10.988;2023-01-25T08:02:20;0.50;99.90
262;DHT22;114;48.260;10.988;2023-01-25T08:04:46;0.50;99.90
262;DHT22;114;48.260;10.988;2023-01-25T08:07:13;0.50;99.90
262;DHT22;114;48.260;10.988;2023-01-25T08:09:40;0.50;99.90
262;DHT22;114;48.260;10.988;2023-01-25T08:12:06;0.50;99.90
262;DHT22;114;48.260;10.988;2023-01-25T08:14:33;0.50;99.90
262;DHT22;114;48.260;10.988;2023-01-25T08:16:59;0.50;99.90
262;DHT22;114;48.260;10.988;2023-01-25T08:19:25;0.50;99.90
262;DHT22;114;48.260;10.988;2023-01-25T08:21:51;0.40;99.90
262;DHT22;114;48.260;10.988;2023-01-25T08:24:17;0.50;99.90
262;DHT22;114;48.260;10.988;2023-01-25T08:26:43;0.50;99.80
262;DHT22;114;48.260;10.988;2023-01-25T08:29:10;0.50;99.90
262;DHT22;114;48.260;10.988;2023-01-25T08:31:39;0.50;99.80
262;DHT22;114;48.260;10.988;2023-01-25T08:34:05;0.60;99.90
262;DHT22;114;48.260;10.988;2023-01-25T08:36:32;0.60;99.40
262;DHT22;114;48.260;10.988;2023-01-25T08:39:00;0.60;99.50
262;DHT22;114;48.260;10.988;2023-01-25T08:41:27;0.60;98.70
262;DHT22;114;48.260;10.988;2023-01-25T08:43:55;0.50;98.50
262;DHT22;114;48.260;10.988;2023-01-25T08:46:22;0.50;97.60
262;DHT22;114;48.260;10.988;2023-01-25T08:48:55;0.60;97.60
262;DHT22;114;48.260;10.988;2023-01-25T08:51:22;0.50;95.80
262;DHT22;114;48.260;10.988;2023-01-25T08:53:48;0.60;96.20
262;DHT22;114;48.260;10.988;2023-01-25T08:56:15;0.50;95.80
262;DHT22;114;48.260;10.988;2023-01-25T08:58:43;0.60;95.90
262;DHT22;114;48.260;10.988;2023-01-25T09:01:10;0.70;95.20
262;DHT22;114;48.260;10.988;2023-01-25T09:03:38;0.60;94.20
262;DHT22;114;48.260;10.988;2023-01-25T09:06:06;0.60;94.10
262;DHT22;114;48.260;10.988;2023-01-25T09:08:33;0.50;95.10
262;DHT22;114;48.260;10.988;2023-01-25T09:11:03;0.50;93.50
262;DHT22;114;48.260;10.988;2023-01-25T09:13:29;0.50;93.80
262;DHT22;114;48.260;10.988;2023-01-25T09:15:59;0.60;94.00
262;DHT22;114;48.260;10.988;2023-01-25T09:18:26;0.50;93.50
262;DHT22;114;48.260;10.988;2023-01-25T09:20:52;0.50;93.20
262;DHT22;114;48.260;10.988;2023-01-25T09:23:18;0.50;93.50
262;DHT22;114;48.260;10.988;2023-01-25T09:25:47;0.50;93.50
262;DHT22;114;48.260;10.988;2023-01-25T09:28:14;0.40;94.30
262;DHT22;114;48.260;10.988;2023-01-25T09:30:39;0.60;95.10
262;DHT22;114;48.260;10.988;2023-01-25T09:33:06;0.60;94.90
262;DHT22;114;48.260;10.988;2023-01-25T09:35:32;0.60;95.10
262;DHT22;114;48.260;10.988;2023-01-25T09:37:58;0.60;92.70
262;DHT22;114;48.260;10.988;2023-01-25T09:40:26;0.40;93.10
262;DHT22;114;48.260;10.988;2023-01-25T09:43:23;0.40;93.00
262;DHT22;114;48.260;10.988;2023-01-25T09:45:52;0.50;93.70
262;DHT22;114;48.260;10.988;2023-01-25T09:51:11;0.60;92.30
262;DHT22;114;48.260;10.988;2023-01-25T09:53:51;0.60;90.50
262;DHT22;114;48.260;10.988;2023-01-25T09:56:33;0.60;90.60
262;DHT22;114;48.260;10.988;2023-01-25T09:59:25;0.60;90.20
262;DHT22;114;48.260;10.988;2023-01-25T10:01:55;0.60;90.20
262;DHT22;114;48.260;10.988;2023-01-25T10:04:24;0.70;91.10
262;DHT22;114;48.260;10.988;2023-01-25T10:07:05;0.70;90.60
262;DHT22;114;48.260;10.988;2023-01-25T10:09:49;0.70;91.40
262;DHT22;114;48.260;10.988;2023-01-25T10:12:23;0.70;91.40
262;DHT22;114;48.260;10.988;2023-01-25T10:14:50;0.70;91.40
262;DHT22;114;48.260;10.988;2023-01-25T10:17:38;0.90;91.40
262;DHT22;114;48.260;10.988;2023-01-25T10:20:13;0.80;90.00
262;DHT22;114;48.260;10.988;2023-01-25T10:22:50;0.50;90.50
262;DHT22;114;48.260;10.988;2023-01-25T10:25:40;0.60;91.30
262;DHT22;114;48.260;10.988;2023-01-25T10:31:19;0.50;95.00
262;DHT22;114;48.260;10.988;2023-01-25T10:33:48;0.60;94.20
262;DHT22;114;48.260;10.988;2023-01-25T10:36:19;0.60;94.60
262;DHT22;114;48.260;10.988;2023-01-25T10:38:47;0.50;94.40
262;DHT22;114;48.260;10.988;2023-01-25T10:41:38;0.50;95.00
262;DHT22;114;48.260;10.988;2023-01-25T10:44:12;0.50;95.70
262;DHT22;114;48.260;10.988;2023-01-25T10:47:13;0.40;95.60
262;DHT22;114;48.260;10.988;2023-01-25T10:49:58;0.50;96.20
262;DHT22;114;48.260;10.988;2023-01-25T10:52:30;0.40;96.80
262;DHT22;114;48.260;10.988;2023-01-25T10:55:20;0.40;95.80
262;DHT22;114;48.260;10.988;2023-01-25T10:57:53;0.50;96.80
262;DHT22;114;48.260;10.988;2023-01-25T11:02:57;0.40;96.00
262;DHT22;114;48.260;10.988;2023-01-25T11:05:32;0.40;96.10
262;DHT22;114;48.260;10.988;2023-01-25T11:08:14;0.30;96.40
262;DHT22;114;48.260;10.988;2023-01-25T11:10:45;0.40;96.60
262;DHT22;114;48.260;10.988;2023-01-25T11:13:18;0.30;96.30
262;DHT22;114;48.260;10.988;2023-01-25T11:15:46;0.30;96.90
262;DHT22;114;48.260;10.988;2023-01-25T11:18:33;0.30;97.00
262;DHT22;114;48.260;10.988;2023-01-25T11:21:13;0.50;97.20
262;DHT22;114;48.260;10.988;2023-01-25T11:24:16;0.30;96.40
262;DHT22;114;48.260;10.988;2023-01-25T11:26:42;0.10;97.50
262;DHT22;114;48.260;10.988;2023-01-25T11:31:38;0.30;98.00
262;DHT22;114;48.260;10.988;2023-01-25T11:34:12;0.30;96.90
262;DHT22;114;48.260;10.988;2023-01-25T11:37:15;0.40;97.40
262;DHT22;114;48.260;10.988;2023-01-25T11:42:58;0.60;96.80
262;DHT22;114;48.260;10.988;2023-01-25T11:48:29;0.40;93.40
262;DHT22;114;48.260;10.988;2023-01-25T11:51:40;0.40;92.80
262;DHT22;114;48.260;10.988;2023-01-25T11:59:40;0.40;91.90
262;DHT22;114;48.260;10.988;2023-01-25T12:02:14;0.40;92.20
262;DHT22;114;48.260;10.988;2023-01-25T12:13:20;0.50;93.80
262;DHT22;114;48.260;10.988;2023-01-25T12:16:14;0.50;94.20
262;DHT22;114;48.260;10.988;2023-01-25T12:27:24;0.50;94.00
262;DHT22;114;48.260;10.988;2023-01-25T12:29:57;0.50;94.20
262;DHT22;114;48.260;10.988;2023-01-25T12:32:46;0.50;93.90
262;DHT22;114;48.260;10.988;2023-01-25T12:37:57;0.40;94.70
262;DHT22;114;48.260;10.988;2023-01-25T12:40:52;0.50;95.00
262;DHT22;114;48.260;10.988;2023-01-25T12:43:44;0.50;94.90
262;DHT22;114;48.260;10.988;2023-01-25T12:46:25;0.60;94.00
262;DHT22;114;48.260;10.988;2023-01-25T12:48:55;0.50;92.80
262;DHT22;114;48.260;10.988;2023-01-25T12:51:23;0.40;92.40
262;DHT22;114;48.260;10.988;2023-01-25T12:53:53;0.50;93.00
262;DHT22;114;48.260;10.988;2023-01-25T12:56:35;0.60;92.50
262;DHT22;114;48.260;10.988;2023-01-25T13:01:54;0.50;94.00
262;DHT22;114;48.260;10.988;2023-01-25T13:10:25;0.50;93.60
262;DHT22;114;48.260;10.988;2023-01-25T13:12:58;0.60;94.20
262;DHT22;114;48.260;10.988;2023-01-25T13:15:44;0.50;93.70
262;DHT22;114;48.260;10.988;2023-01-25T13:20:59;0.50;94.40
262;DHT22;114;48.260;10.988;2023-01-25T13:23:37;0.50;95.00
262;DHT22;114;48.260;10.988;2023-01-25T13:28:47;0.30;95.80
262;DHT22;114;48.260;10.988;2023-01-25T13:34:12;0.30;97.90
262;DHT22;114;48.260;10.988;2023-01-25T13:36:57;0.40;98.10
262;DHT22;114;48.260;10.988;2023-01-25T13:42:03;0.30;96.40
262;DHT22;114;48.260;10.988;2023-01-25T13:44:31;0.30;96.00
262;DHT22;114;48.260;10.988;2023-01-25T13:47:01;0.40;96.00
262;DHT22;114;48.260;10.988;2023-01-25T13:52:21;0.40;95.00
262;DHT22;114;48.260;10.988;2023-01-25T13:54:48;0.40;95.20
262;DHT22;114;48.260;10.988;2023-01-25T13:57:23;0.40;95.00
262;DHT22;114;48.260;10.988;2023-01-25T13:59:59;0.40;95.40
262;DHT22;114;48.260;10.988;2023-01-25T14:02:26;0.40;95.90
262;DHT22;114;48.260;10.988;2023-01-25T14:04:52;0.50;96.10
262;DHT22;114;48.260;10.988;2023-01-25T14:07:26;0.40;95.60
262;DHT22;114;48.260;10.988;2023-01-25T14:09:52;0.30;96.10
262;DHT22;114;48.260;10.988;2023-01-25T14:12:39;0.40;96.70
262;DHT22;114;48.260;10.988;2023-01-25T14:15:24;0.30;96.80
262;DHT22;114;48.260;10.988;2023-01-25T14:18:26;0.40;97.00
262;DHT22;114;48.260;10.988;2023-01-25T14:21:09;0.40;97.20
262;DHT22;114;48.260;10.988;2023-01-25T14:23:36;0.40;97.60
262;DHT22;114;48.260;10.988;2023-01-25T14:26:01;0.30;97.40
262;DHT22;114;48.260;10.988;2023-01-25T14:28:28;0.30;97.50
262;DHT22;114;48.260;10.988;2023-01-25T14:30:58;0.30;98.00
262;DHT22;114;48.260;10.988;2023-01-25T14:33:31;0.20;96.20
262;DHT22;114;48.260;10.988;2023-01-25T14:36:08;0.20;97.30
262;DHT22;114;48.260;10.988;2023-01-25T14:38:38;0.20;97.20
262;DHT22;114;48.260;10.988;2023-01-25T14:41:36;0.20;97.30
262;DHT22;114;48.260;10.988;2023-01-25T14:44:12;0.20;97.30
262;DHT22;114;48.260;10.988;2023-01-25T14:46:39;0.30;97.50
262;DHT22;114;48.260;10.988;2023-01-25T14:52:09;0.20;97.30
262;DHT22;114;48.260;10.988;2023-01-25T14:54:36;0.30;96.90
262;DHT22;114;48.260;10.988;2023-01-25T14:59:50;0.20;97.10
262;DHT22;114;48.260;10.988;2023-01-25T15:05:18;0.20;97.20
262;DHT22;114;48.260;10.988;2023-01-25T15:07:48;0.10;97.10
262;DHT22;114;48.260;10.988;2023-01-25T15:10:35;0.10;97.60
262;DHT22;114;48.260;10.988;2023-01-25T15:15:47;0.30;98.10
262;DHT22;114;48.260;10.988;2023-01-25T15:21:07;0.10;98.10
262;DHT22;114;48.260;10.988;2023-01-25T15:23:34;0.10;98.50
262;DHT22;114;48.260;10.988;2023-01-25T15:26:00;0.10;98.50
262;DHT22;114;48.260;10.988;2023-01-25T15:28:30;0.10;98.80
262;DHT22;114;48.260;10.988;2023-01-25T15:31:02;0.10;99.10
262;DHT22;114;48.260;10.988;2023-01-25T15:33:29;0.10;99.20
262;DHT22;114;48.260;10.988;2023-01-25T15:35:57;0.20;99.50
262;DHT22;114;48.260;10.988;2023-01-25T15:38:24;0.20;99.30
262;DHT22;114;48.260;10.988;2023-01-25T15:40:50;0.20;99.00
262;DHT22;114;48.260;10.988;2023-01-25T15:43:18;0.10;98.80
262;DHT22;114;48.260;10.988;2023-01-25T15:45:48;0.20;99.00
262;DHT22;114;48.260;10.988;2023-01-25T15:48:22;0.20;99.00
262;DHT22;114;48.260;10.988;2023-01-25T15:50:52;0.20;99.10
262;DHT22;114;48.260;10.988;2023-01-25T15:53:20;0.20;98.60
262;DHT22;114;48.260;10.988;2023-01-25T15:55:48;0.20;98.40
262;DHT22;114;48.260;10.988;2023-01-25T15:58:42;0.20;98.50
262;DHT22;114;48.260;10.988;2023-01-25T16:01:08;0.10;98.40
262;DHT22;114;48.260;10.988;2023-01-25T16:03:34;0.10;98.50
262;DHT22;114;48.260;10.988;2023-01-25T16:06:02;0.20;98.50
262;DHT22;114;48.260;10.988;2023-01-25T16:08:28;0.20;98.50
262;DHT22;114;48.260;10.988;2023-01-25T16:10:55;0.20;98.50
262;DHT22;114;48.260;10.988;2023-01-25T16:13:20;0.20;98.50
262;DHT22;114;48.260;10.988;2023-01-25T16:15:51;0.20;98.60
262;DHT22;114;48.260;10.988;2023-01-25T16:18:17;0.20;98.50
262;DHT22;114;48.260;10.988;2023-01-25T16:20:43;0.10;98.50
262;DHT22;114;48.260;10.988;2023-01-25T16:23:10;0.20;98.50
262;DHT22;114;48.260;10.988;2023-01-25T16:25:39;0.10;98.60
262;DHT22;114;48.260;10.988;2023-01-25T16:28:10;0.20;98.90
262;DHT22;114;48.260;10.988;2023-01-25T16:30:37;0.10;98.40
262;DHT22;114;48.260;10.988;2023-01-25T16:33:03;0.10;98.70
262;DHT22;114;48.260;10.988;2023-01-25T16:35:29;0.10;98.50
262;DHT22;114;48.260;10.988;2023-01-25T16:37:55;0.20;98.60
262;DHT22;114;48.260;10.988;2023-01-25T16:40:24;0.10;98.60
262;DHT22;114;48.260;10.988;2023-01-25T16:42:50;0.10;98.50
262;DHT22;114;48.260;10.988;2023-01-25T16:45:16;0.30;98.80
262;DHT22;114;48.260;10.988;2023-01-25T16:47:46;0.10;98.80
262;DHT22;114;48.260;10.988;2023-01-25T16:52:43;0.00;98.90
262;DHT22;114;48.260;10.988;2023-01-25T16:55:12;0.10;99.10
262;DHT22;114;48.260;10.988;2023-01-25T16:57:39;0.00;98.70
262;DHT22;114;48.260;10.988;2023-01-25T17:00:07;0.10;99.00
262;DHT22;114;48.260;10.988;2023-01-25T17:02:36;0.00;98.50
262;DHT22;114;48.260;10.988;2023-01-25T17:05:02;0.00;98.70
262;DHT22;114;48.260;10.988;2023-01-25T17:07:28;0.00;98.60
262;DHT22;114;48.260;10.988;2023-01-25T17:09:54;0.00;98.90
262;DHT22;114;48.260;10.988;2023-01-25T17:12:20;0.00;98.60
262;DHT22;114;48.260;10.988;2023-01-25T17:14:45;0.00;99.10
262;DHT22;114;48.260;10.988;2023-01-25T17:17:11;0.00;99.20
262;DHT22;114;48.260;10.988;2023-01-25T17:19:37;0.00;98.90
262;DHT22;114;48.260;10.988;2023-01-25T17:22:03;0.00;98.70
262;DHT22;114;48.260;10.988;2023-01-25T17:24:28;0.00;98.70
262;DHT22;114;48.260;10.988;2023-01-25T17:26:55;0.00;99.20
262;DHT22;114;48.260;10.988;2023-01-25T17:29:22;0.00;99.20
262;DHT22;114;48.260;10.988;2023-01-25T17:31:48;0.10;99.30
262;DHT22;114;48.260;10.988;2023-01-25T17:34:15;0.10;98.90
262;DHT22;114;48.260;10.988;2023-01-25T17:36:47;0.00;98.60
262;DHT22;114;48.260;10.988;2023-01-25T17:39:14;0.10;98.50
262;DHT22;114;48.260;10.988;2023-01-25T17:41:43;0.10;98.60
262;DHT22;114;48.260;10.988;2023-01-25T17:44:10;0.10;98.20
262;DHT22;114;48.260;10.988;2023-01-25T17:46:36;0.10;98.20
262;DHT22;114;48.260;10.988;2023-01-25T17:49:04;0.10;98.40
262;DHT22;114;48.260;10.988;2023-01-25T17:51:31;0.20;98.70
262;DHT22;114;48.260;10.988;2023-01-25T17:53:58;0.20;98.40
262;DHT22;114;48.260;10.988;2023-01-25T17:56:25;0.10;98.20
262;DHT22;114;48.260;10.988;2023-01-25T17:58:51;0.10;98.40
262;DHT22;114;48.260;10.988;2023-01-25T18:01:19;0.20;99.30
262;DHT22;114;48.260;10.988;2023-01-25T18:03:47;0.40;98.60
262;DHT22;114;48.260;10.988;2023-01-25T18:06:15;0.20;98.50
262;DHT22;114;48.260;10.988;2023-01-25T18:08:44;0.20;98.50
262;DHT22;114;48.260;10.988;2023-01-25T18:11:12;0.10;97.60
262;DHT22;114;48.260;10.988;2023-01-25T18:13:48;0.20;97.70
262;DHT22;114;48.260;10.988;2023-01-25T18:16:14;0.10;96.80
262;DHT22;114;48.260;10.988;2023-01-25T18:18:43;0.10;97.20
262;DHT22;114;48.260;10.988;2023-01-25T18:21:14;0.10;97.70
262;DHT22;114;48.260;10.988;2023-01-25T18:23:42;0.10;96.70
262;DHT22;114;48.260;10.988;2023-01-25T18:26:21;-0.20;96.40
262;DHT22;114;48.260;10.988;2023-01-25T18:28:48;0.00;96.90
262;DHT22;114;48.260;10.988;2023-01-25T18:31:13;0.10;96.60